createdAt,value
2023-10-22T00:00:09.523Z,5.97
2023-10-22T00:02:37.261Z,4.95
2023-10-22T00:05:05.558Z,4.80
2023-10-22T00:07:33.302Z,5.93
2023-10-22T00:10:00.167Z,4.05
2023-10-22T00:12:27.254Z,7.18
2023-10-22T00:14:54.237Z,7.78
2023-10-22T00:17:20.832Z,4.18
2023-10-22T00:19:47.749Z,5.40
2023-10-22T00:22:15.370Z,6.10
2023-10-22T00:24:43.035Z,4.10
2023-10-22T00:27:09.523Z,5.43
2023-10-22T00:29:36.371Z,4.63
2023-10-22T00:32:02.875Z,4.38
2023-10-22T00:34:30.087Z,6.13
2023-10-22T00:36:56.592Z,3.75
2023-10-22T00:39:23.118Z,4.05
2023-10-22T00:41:50.004Z,3.50
2023-10-22T00:44:16.430Z,5.57
2023-10-22T00:46:47.492Z,4.78
2023-10-22T00:49:16.073Z,4.43
2023-10-22T00:51:43.715Z,3.95
2023-10-22T00:54:11.007Z,4.13
2023-10-22T00:56:38.279Z,3.30
2023-10-22T00:59:05.462Z,5.05
2023-10-22T01:01:32.036Z,5.30
2023-10-22T01:03:59.370Z,4.90
2023-10-22T01:06:26.832Z,4.07
2023-10-22T01:08:55.451Z,5.18
2023-10-22T01:11:22.089Z,4.45
2023-10-22T01:13:49.442Z,4.43
2023-10-22T01:16:15.865Z,3.22
2023-10-22T01:18:42.402Z,4.75
2023-10-22T01:21:09.478Z,5.72
2023-10-22T01:23:39.618Z,5.07
2023-10-22T01:26:08.257Z,5.00
2023-10-22T01:28:37.698Z,6.38
2023-10-22T01:31:12.165Z,4.07
2023-10-22T01:33:39.019Z,4.43
2023-10-22T01:36:05.795Z,5.32
2023-10-22T01:38:32.645Z,6.05
2023-10-22T01:40:59.135Z,5.28
2023-10-22T01:43:25.897Z,5.70
2023-10-22T01:45:52.262Z,7.63
2023-10-22T01:48:19.072Z,6.47
2023-10-22T01:50:45.638Z,6.47
2023-10-22T01:53:12.057Z,6.40
2023-10-22T01:55:38.851Z,6.50
2023-10-22T01:58:06.114Z,5.78
2023-10-22T02:00:33.865Z,5.85
2023-10-22T02:03:01.186Z,8.30
2023-10-22T02:05:28.072Z,6.78
2023-10-22T02:07:54.481Z,7.68
2023-10-22T02:10:21.583Z,7.10
2023-10-22T02:12:48.503Z,6.60
2023-10-22T02:15:15.285Z,8.13
2023-10-22T02:17:42.148Z,6.88
2023-10-22T02:20:10.574Z,7.53
2023-10-22T02:22:38.988Z,11.73
2023-10-22T02:25:07.136Z,8.23
2023-10-22T02:27:33.818Z,5.90
2023-10-22T02:30:01.095Z,9.38
2023-10-22T02:32:27.617Z,8.93
2023-10-22T02:34:54.430Z,9.90
2023-10-22T02:37:21.117Z,6.95
2023-10-22T02:39:48.331Z,6.18
2023-10-22T02:42:15.199Z,5.03
2023-10-22T02:44:41.779Z,6.38
2023-10-22T02:47:08.804Z,4.72
2023-10-22T02:49:35.364Z,4.70
2023-10-22T02:52:03.684Z,5.50
2023-10-22T02:54:30.097Z,6.68
2023-10-22T02:56:56.878Z,6.63
2023-10-22T02:59:23.342Z,5.80
2023-10-22T03:01:49.714Z,6.15
2023-10-22T03:04:16.596Z,6.95
2023-10-22T03:06:43.080Z,7.22
2023-10-22T03:09:09.879Z,4.53
2023-10-22T03:11:37.461Z,6.32
2023-10-22T03:14:06.490Z,4.15
2023-10-22T03:16:33.310Z,4.57
2023-10-22T03:18:59.963Z,6.32
2023-10-22T03:21:29.651Z,4.57
2023-10-22T03:23:56.469Z,4.88
2023-10-22T03:26:23.392Z,5.35
2023-10-22T03:28:51.657Z,6.10
2023-10-22T03:31:19.979Z,3.10
2023-10-22T03:33:46.578Z,2.88
2023-10-22T03:36:15.402Z,6.13
2023-10-22T03:38:42.719Z,4.50
2023-10-22T03:41:09.801Z,4.10
2023-10-22T03:43:36.922Z,4.22
2023-10-22T03:46:03.981Z,4.45
2023-10-22T03:48:31.877Z,4.13
2023-10-22T03:50:58.595Z,3.25
2023-10-22T03:53:25.246Z,4.72
2023-10-22T03:55:52.492Z,4.40
2023-10-22T03:58:18.951Z,3.35
2023-10-22T04:00:46.056Z,6.13
2023-10-22T04:03:13.216Z,2.90
2023-10-22T04:05:40.230Z,3.25
2023-10-22T04:08:06.816Z,4.38
2023-10-22T04:10:33.215Z,3.90
2023-10-22T04:12:59.630Z,7.88
2023-10-22T04:15:26.045Z,4.53
2023-10-22T04:17:52.890Z,6.93
2023-10-22T04:20:19.673Z,5.78
2023-10-22T04:22:46.453Z,6.78
2023-10-22T04:25:14.761Z,5.78
2023-10-22T04:27:41.494Z,4.72
2023-10-22T04:30:09.247Z,6.57
2023-10-22T04:32:37.471Z,7.15
2023-10-22T04:35:05.039Z,6.03
2023-10-22T04:37:31.554Z,7.18
2023-10-22T04:39:59.965Z,6.53
2023-10-22T04:42:28.713Z,6.80
2023-10-22T04:44:55.984Z,6.13
2023-10-22T04:47:22.761Z,6.28
2023-10-22T04:49:54.269Z,5.90
2023-10-22T04:52:32.645Z,6.60
2023-10-22T04:55:02.606Z,5.40
2023-10-22T04:57:29.930Z,6.88
2023-10-22T04:59:57.547Z,6.22
2023-10-22T05:02:24.202Z,5.70
2023-10-22T05:04:52.525Z,6.30
2023-10-22T05:07:19.363Z,6.35
2023-10-22T05:09:46.117Z,10.07
2023-10-22T05:12:12.659Z,5.65
2023-10-22T05:14:39.764Z,5.25
2023-10-22T05:17:06.742Z,6.03
2023-10-22T05:19:34.232Z,5.85
2023-10-22T05:22:01.367Z,5.32
2023-10-22T05:24:28.046Z,5.68
2023-10-22T05:26:55.193Z,5.00
2023-10-22T05:29:21.643Z,5.35
2023-10-22T05:31:48.767Z,5.90
2023-10-22T05:34:15.397Z,4.85
2023-10-22T05:36:43.024Z,5.97
2023-10-22T05:39:09.949Z,5.43
2023-10-22T05:41:36.395Z,4.20
2023-10-22T05:44:04.455Z,4.93
2023-10-22T05:46:35.162Z,5.55
2023-10-22T05:49:02.710Z,4.93
2023-10-22T05:51:29.068Z,4.90
2023-10-22T05:53:55.599Z,4.35
2023-10-22T05:56:24.964Z,6.18
2023-10-22T05:58:51.552Z,5.95
2023-10-22T06:01:18.521Z,4.78
2023-10-22T06:03:47.386Z,6.97
2023-10-22T06:06:22.411Z,5.80
2023-10-22T06:08:49.876Z,13.18
2023-10-22T06:11:16.415Z,6.95
2023-10-22T06:13:43.286Z,6.40
2023-10-22T06:16:10.932Z,5.60
2023-10-22T06:18:37.933Z,4.85
2023-10-22T06:21:14.849Z,5.30
2023-10-22T06:23:41.822Z,5.22
2023-10-22T06:26:14.475Z,7.00
2023-10-22T06:28:42.130Z,7.70
2023-10-22T06:31:12.390Z,7.07
2023-10-22T06:33:40.207Z,8.65
2023-10-22T06:36:20.387Z,17.15
2023-10-22T06:38:47.958Z,15.55
2023-10-22T06:41:16.522Z,11.32
2023-10-22T06:43:43.755Z,16.08
2023-10-22T06:46:11.435Z,26.55
2023-10-22T06:48:38.158Z,26.52
2023-10-22T06:51:10.950Z,17.63
2023-10-22T06:53:41.509Z,15.32
2023-10-22T06:56:08.085Z,15.60
2023-10-22T06:58:35.415Z,14.18
2023-10-22T07:01:08.957Z,18.83
2023-10-22T07:03:36.706Z,25.58
2023-10-22T07:06:04.047Z,31.55
2023-10-22T07:08:31.122Z,26.85
2023-10-22T07:10:58.607Z,26.05
2023-10-22T07:13:25.808Z,23.17
2023-10-22T07:15:53.955Z,30.63
2023-10-22T07:18:21.755Z,31.58
2023-10-22T07:20:49.171Z,26.08
2023-10-22T07:23:16.624Z,32.28
2023-10-22T07:25:43.608Z,27.02
2023-10-22T07:28:10.110Z,33.00
2023-10-22T07:30:36.945Z,32.38
2023-10-22T07:33:03.406Z,31.85
2023-10-22T07:35:30.373Z,23.45
2023-10-22T07:37:56.765Z,24.25
2023-10-22T07:40:23.212Z,22.10
2023-10-22T07:42:50.066Z,24.95
2023-10-22T07:45:17.519Z,16.63
2023-10-22T07:47:44.566Z,12.93
2023-10-22T07:50:11.350Z,12.43
2023-10-22T07:52:38.442Z,11.90
2023-10-22T07:55:07.053Z,8.85
2023-10-22T07:57:33.590Z,9.95
2023-10-22T08:00:00.132Z,8.30
2023-10-22T08:02:26.648Z,6.07
2023-10-22T08:04:53.070Z,6.82
2023-10-22T08:07:20.047Z,4.85
2023-10-22T08:09:47.548Z,6.03
2023-10-22T08:12:14.565Z,7.07
2023-10-22T08:14:41.848Z,6.88
2023-10-22T08:17:08.505Z,7.38
2023-10-22T08:19:35.104Z,7.13
2023-10-22T08:22:01.623Z,10.40
2023-10-22T08:24:28.041Z,6.80
2023-10-22T08:26:54.867Z,7.38
2023-10-22T08:29:21.410Z,7.60
2023-10-22T08:31:47.839Z,8.27
2023-10-22T08:34:14.648Z,4.63
2023-10-22T08:36:43.162Z,2.83
2023-10-22T08:39:11.289Z,3.45
2023-10-22T08:41:48.785Z,2.78
2023-10-22T08:44:16.890Z,3.30
2023-10-22T08:46:43.895Z,3.28
2023-10-22T08:49:12.343Z,3.47
2023-10-22T08:51:39.591Z,3.03
2023-10-22T08:54:06.350Z,2.63
2023-10-22T08:56:33.790Z,3.05
2023-10-22T08:59:03.590Z,3.88
2023-10-22T09:01:30.056Z,2.47
2023-10-22T09:03:57.046Z,4.75
2023-10-22T09:06:23.698Z,3.22
2023-10-22T09:08:50.530Z,1.58
2023-10-22T09:11:18.177Z,6.07
2023-10-22T09:13:45.872Z,3.78
2023-10-22T09:16:12.422Z,2.35
2023-10-22T09:18:46.101Z,2.35
2023-10-22T09:21:12.534Z,3.63
2023-10-22T09:23:40.951Z,2.20
2023-10-22T09:26:10.951Z,4.05
2023-10-22T09:28:37.377Z,1.90
2023-10-22T09:31:05.747Z,1.95
2023-10-22T09:33:37.803Z,4.07
2023-10-22T09:36:04.568Z,3.13
2023-10-22T09:38:48.549Z,3.28
2023-10-22T09:41:30.839Z,4.13
2023-10-22T09:44:06.038Z,3.28
2023-10-22T09:46:35.105Z,2.72
2023-10-22T09:49:05.150Z,4.38
2023-10-22T09:51:36.074Z,4.15
2023-10-22T09:54:06.867Z,2.38
2023-10-22T09:56:39.339Z,3.38
2023-10-22T09:59:08.838Z,2.53
2023-10-22T10:01:37.217Z,1.13
2023-10-22T10:04:04.810Z,2.15
2023-10-22T10:06:32.185Z,2.30
2023-10-22T10:09:01.032Z,2.50
2023-10-22T10:11:28.806Z,2.28
2023-10-22T10:13:55.364Z,2.97
2023-10-22T10:16:24.454Z,1.98
2023-10-22T10:19:02.380Z,4.88
2023-10-22T10:21:34.946Z,4.60
2023-10-22T10:24:25.279Z,1.38
2023-10-22T10:26:57.691Z,3.75
2023-10-22T10:29:33.506Z,0.70
2023-10-22T10:32:15.720Z,2.50
2023-10-22T10:34:46.525Z,0.90
2023-10-22T10:37:21.684Z,3.60
2023-10-22T10:39:49.917Z,1.73
2023-10-22T10:42:39.516Z,3.25
2023-10-22T10:45:09.373Z,1.80
2023-10-22T10:47:41.090Z,0.85
2023-10-22T10:50:19.856Z,0.98
2023-10-22T10:52:49.331Z,2.10
2023-10-22T10:55:16.147Z,0.70
2023-10-22T10:57:45.759Z,2.45
2023-10-22T11:00:23.760Z,1.02
2023-10-22T11:02:52.000Z,2.35
2023-10-22T11:05:31.258Z,2.40
2023-10-22T11:07:57.794Z,0.68
2023-10-22T11:10:24.444Z,0.70
2023-10-22T11:12:54.664Z,2.38
2023-10-22T11:15:21.088Z,1.35
2023-10-22T11:17:47.982Z,2.75
2023-10-22T11:20:16.451Z,1.63
2023-10-22T11:22:43.253Z,2.05
2023-10-22T11:25:11.362Z,1.42
2023-10-22T11:27:39.209Z,1.77
2023-10-22T11:30:07.167Z,2.30
2023-10-22T11:32:36.103Z,0.68
2023-10-22T11:35:06.077Z,1.23
2023-10-22T11:37:43.396Z,0.60
2023-10-22T11:40:27.017Z,1.85
2023-10-22T11:42:53.996Z,1.95
2023-10-22T11:45:21.605Z,0.90
2023-10-22T11:47:48.163Z,2.17
2023-10-22T11:50:15.564Z,2.35
2023-10-22T11:52:55.851Z,0.70
2023-10-22T11:57:55.398Z,0.65
2023-10-22T12:00:22.027Z,1.50
2023-10-22T12:02:48.778Z,1.42
2023-10-22T12:05:15.442Z,1.55
2023-10-22T12:07:41.844Z,1.85
2023-10-22T12:10:08.986Z,1.38
2023-10-22T12:12:35.375Z,1.02
2023-10-22T12:15:01.981Z,0.50
2023-10-22T12:17:28.882Z,1.05
2023-10-22T12:19:55.537Z,0.73
2023-10-22T12:22:22.323Z,0.30
2023-10-22T12:24:52.494Z,0.57
2023-10-22T12:27:19.029Z,4.68
2023-10-22T12:29:45.472Z,1.02
2023-10-22T12:32:12.300Z,1.85
2023-10-22T12:34:38.744Z,2.13
2023-10-22T12:37:05.398Z,0.40
2023-10-22T12:39:32.106Z,1.98
2023-10-22T12:41:58.532Z,0.52
2023-10-22T12:44:25.460Z,1.77
2023-10-22T12:46:53.124Z,3.25
2023-10-22T12:49:19.629Z,0.40
2023-10-22T12:51:46.142Z,2.75
2023-10-22T12:54:13.014Z,0.60
2023-10-22T12:56:39.494Z,0.50
2023-10-22T12:59:05.954Z,1.75
2023-10-22T13:01:33.293Z,0.70
2023-10-22T13:03:59.777Z,2.25
2023-10-22T13:06:26.306Z,1.25
2023-10-22T13:08:53.197Z,1.63
2023-10-22T13:11:22.042Z,1.65
2023-10-22T13:13:51.414Z,0.70
2023-10-22T13:16:18.332Z,0.85
2023-10-22T13:18:44.834Z,2.40
2023-10-22T13:21:11.303Z,0.73
2023-10-22T13:23:38.198Z,0.98
2023-10-22T13:26:04.826Z,1.05
2023-10-22T13:28:31.310Z,0.60
2023-10-22T13:30:58.116Z,1.98
2023-10-22T13:33:24.548Z,2.08
2023-10-22T13:35:50.966Z,1.77
2023-10-22T13:38:18.411Z,3.47
2023-10-22T13:40:44.772Z,0.52
2023-10-22T13:43:11.156Z,2.10
2023-10-22T13:45:38.333Z,0.40
2023-10-22T13:48:06.256Z,0.90
2023-10-22T13:50:32.732Z,2.17
2023-10-22T13:52:59.643Z,1.15
2023-10-22T13:55:26.075Z,2.42
2023-10-22T13:57:54.793Z,2.03
2023-10-22T14:00:22.294Z,3.20
2023-10-22T14:02:49.040Z,0.70
2023-10-22T14:05:15.648Z,2.67
2023-10-22T14:07:42.803Z,1.33
2023-10-22T14:10:09.785Z,3.03
2023-10-22T14:12:36.446Z,1.70
2023-10-22T14:15:03.619Z,0.90
2023-10-22T14:17:30.152Z,2.28
2023-10-22T14:19:56.798Z,2.00
2023-10-22T14:22:23.651Z,2.50
2023-10-22T14:24:55.671Z,2.15
2023-10-22T14:27:24.399Z,1.45
2023-10-22T14:29:53.666Z,1.48
2023-10-22T14:32:20.133Z,0.98
2023-10-22T14:34:46.897Z,0.80
2023-10-22T14:37:13.380Z,1.30
2023-10-22T14:39:40.053Z,3.10
2023-10-22T14:42:07.297Z,2.63
2023-10-22T14:44:33.774Z,1.55
2023-10-22T14:47:00.547Z,4.70
2023-10-22T14:49:26.911Z,1.23
2023-10-22T14:51:53.662Z,1.80
2023-10-22T14:54:20.094Z,2.25
2023-10-22T14:56:48.360Z,1.10
2023-10-22T14:59:15.781Z,0.80
2023-10-22T15:01:42.407Z,2.47
2023-10-22T15:04:09.386Z,1.58
2023-10-22T15:06:35.978Z,1.40
2023-10-22T15:09:02.396Z,2.88
2023-10-22T15:11:29.067Z,3.08
2023-10-22T15:13:55.620Z,1.00
2023-10-22T15:16:22.845Z,2.85
2023-10-22T15:18:49.713Z,3.08
2023-10-22T15:21:16.316Z,4.25
2023-10-22T15:23:43.150Z,3.58
2023-10-22T15:26:10.019Z,1.88
2023-10-22T15:28:36.809Z,0.98
2023-10-22T15:31:03.263Z,0.82
2023-10-22T15:33:30.084Z,1.60
2023-10-22T15:36:00.062Z,1.75
2023-10-22T15:38:26.810Z,1.85
2023-10-22T15:40:54.166Z,1.17
2023-10-22T15:43:21.193Z,1.45
2023-10-22T15:45:50.132Z,2.05
2023-10-22T15:48:17.959Z,2.50
2023-10-22T15:50:45.292Z,3.83
2023-10-22T15:53:12.318Z,0.90
2023-10-22T15:55:38.886Z,1.75
2023-10-22T15:58:05.299Z,1.30
2023-10-22T16:00:36.433Z,2.47
2023-10-22T16:03:03.484Z,1.73
2023-10-22T16:05:29.949Z,0.90
2023-10-22T16:07:56.561Z,0.75
2023-10-22T16:10:23.177Z,2.80
2023-10-22T16:12:52.207Z,3.65
2023-10-22T16:15:21.115Z,1.55
2023-10-22T16:17:47.828Z,1.85
2023-10-22T16:20:14.888Z,3.42
2023-10-22T16:22:41.645Z,2.30
2023-10-22T16:25:08.938Z,1.15
2023-10-22T16:27:35.629Z,1.65
2023-10-22T16:30:02.499Z,2.10
2023-10-22T16:32:29.494Z,3.78
2023-10-22T16:34:55.881Z,3.15
2023-10-22T16:37:22.260Z,1.77
2023-10-22T16:39:49.144Z,1.92
2023-10-22T16:42:15.569Z,2.28
2023-10-22T16:44:42.023Z,5.03
2023-10-22T16:47:15.338Z,25.73
2023-10-22T16:49:41.760Z,14.02
2023-10-22T16:52:08.198Z,16.92
2023-10-22T16:54:35.062Z,11.50
2023-10-22T16:57:01.871Z,10.63
2023-10-22T16:59:28.604Z,11.73
2023-10-22T17:01:55.664Z,10.13
2023-10-22T17:04:22.083Z,10.15
2023-10-22T17:06:48.580Z,9.10
2023-10-22T17:09:15.372Z,6.75
2023-10-22T17:11:41.792Z,5.93
2023-10-22T17:14:08.146Z,6.35
2023-10-22T17:16:35.475Z,4.05
2023-10-22T17:19:02.008Z,4.93
2023-10-22T17:21:29.178Z,4.50
2023-10-22T17:23:56.775Z,3.50
2023-10-22T17:26:23.170Z,3.67
2023-10-22T17:28:51.068Z,2.92
2023-10-22T17:31:18.033Z,3.03
2023-10-22T17:36:15.243Z,7.05
2023-10-22T17:38:42.218Z,3.88
2023-10-22T17:41:08.602Z,5.75
2023-10-22T17:43:35.225Z,5.90
2023-10-22T17:46:02.062Z,5.50
2023-10-22T17:48:28.613Z,5.28
2023-10-22T17:51:03.412Z,4.07
2023-10-22T17:56:10.286Z,3.83
2023-10-22T17:58:38.485Z,2.97
2023-10-22T18:01:05.871Z,5.75
2023-10-22T18:03:35.033Z,3.03
2023-10-22T18:06:02.135Z,4.28
2023-10-22T18:08:29.406Z,4.15
2023-10-22T18:11:00.830Z,2.95
2023-10-22T18:13:28.667Z,2.80
2023-10-22T18:15:58.589Z,3.95
2023-10-22T18:18:25.724Z,2.47
2023-10-22T18:20:53.527Z,3.28
2023-10-22T18:23:22.140Z,2.78
2023-10-22T18:26:05.302Z,6.70
2023-10-22T18:28:33.053Z,3.60
2023-10-22T18:30:59.933Z,4.07
2023-10-22T18:33:26.787Z,4.70
2023-10-22T18:35:53.459Z,5.65
2023-10-22T18:38:19.828Z,2.10
2023-10-22T18:40:51.665Z,3.10
2023-10-22T18:43:18.260Z,7.13
2023-10-22T18:45:44.970Z,4.45
2023-10-22T18:48:13.591Z,5.63
2023-10-22T18:50:40.269Z,5.72
2023-10-22T18:53:06.652Z,18.27
2023-10-22T18:55:33.360Z,40.15
2023-10-22T18:57:59.757Z,28.65
2023-10-22T19:00:26.367Z,8.50
2023-10-22T19:02:53.317Z,1.67
2023-10-22T19:05:19.838Z,3.83
2023-10-22T19:07:46.592Z,1.83
2023-10-22T19:10:14.661Z,2.88
2023-10-22T19:12:42.806Z,6.05
2023-10-22T19:15:10.727Z,5.70
2023-10-22T19:17:38.259Z,1.88
2023-10-22T19:20:08.875Z,1.35
2023-10-22T19:22:35.839Z,2.88
2023-10-22T19:25:03.857Z,0.95
2023-10-22T19:27:30.280Z,3.83
2023-10-22T19:29:56.666Z,1.83
2023-10-22T19:32:23.416Z,2.55
2023-10-22T19:34:49.806Z,8.40
2023-10-22T19:37:16.263Z,9.88
2023-10-22T19:39:44.685Z,8.95
2023-10-22T19:42:11.129Z,4.20
2023-10-22T19:44:37.697Z,5.63
2023-10-22T19:47:04.821Z,7.30
2023-10-22T19:49:31.206Z,7.53
2023-10-22T19:51:57.569Z,6.50
2023-10-22T19:54:26.541Z,6.50
2023-10-22T19:56:53.406Z,8.35
2023-10-22T19:59:19.877Z,5.63
2023-10-22T20:01:48.200Z,5.25
2023-10-22T20:04:14.751Z,3.67
2023-10-22T20:06:42.808Z,3.63
2023-10-22T20:09:09.405Z,2.55
2023-10-22T20:11:35.988Z,3.78
2023-10-22T20:14:02.373Z,5.38
2023-10-22T20:16:29.473Z,1.30
2023-10-22T20:18:56.232Z,1.73
2023-10-22T20:21:24.108Z,2.25
2023-10-22T20:23:52.436Z,1.63
2023-10-22T20:26:19.060Z,1.33
2023-10-22T20:28:46.210Z,1.83
2023-10-22T20:31:13.435Z,2.10
2023-10-22T20:33:41.932Z,0.80
2023-10-22T20:36:10.797Z,1.63
2023-10-22T20:38:37.988Z,4.28
2023-10-22T20:41:06.643Z,2.80
2023-10-22T20:43:33.851Z,1.55
2023-10-22T20:46:05.957Z,1.50
2023-10-22T20:48:33.380Z,1.52
2023-10-22T20:51:20.118Z,1.50
2023-10-22T20:53:48.181Z,2.20
2023-10-22T20:56:15.083Z,2.78
2023-10-22T20:58:45.518Z,3.05
2023-10-22T21:01:21.454Z,1.40
2023-10-22T21:03:48.452Z,1.63
2023-10-22T21:06:15.413Z,2.85
2023-10-22T21:08:43.084Z,1.67
2023-10-22T21:11:11.846Z,1.15
2023-10-22T21:13:38.298Z,1.05
2023-10-22T21:16:04.897Z,2.58
2023-10-22T21:18:32.490Z,1.05
2023-10-22T21:21:00.062Z,1.67
2023-10-22T21:23:27.548Z,2.00
2023-10-22T21:25:54.386Z,1.20
2023-10-22T21:28:20.997Z,7.55
2023-10-22T21:30:49.100Z,2.33
2023-10-22T21:33:24.331Z,3.20
2023-10-22T21:36:12.170Z,1.80
2023-10-22T21:38:39.558Z,2.20
2023-10-22T21:41:13.977Z,1.48
2023-10-22T21:43:40.443Z,2.90
2023-10-22T21:46:10.459Z,2.40
2023-10-22T21:48:38.459Z,1.05
2023-10-22T21:51:05.354Z,3.58
2023-10-22T21:53:32.311Z,0.60
2023-10-22T21:55:59.511Z,1.75
2023-10-22T21:58:26.234Z,2.42
2023-10-22T22:00:52.659Z,1.80
2023-10-22T22:03:19.804Z,11.15
2023-10-22T22:05:46.286Z,7.47
2023-10-22T22:08:12.797Z,1.95
2023-10-22T22:10:39.792Z,2.85
2023-10-22T22:13:06.190Z,4.00
2023-10-22T22:15:33.046Z,2.50
2023-10-22T22:17:59.516Z,2.00
2023-10-22T22:20:26.360Z,1.25
2023-10-22T22:22:53.135Z,2.40
2023-10-22T22:25:21.420Z,1.10
2023-10-22T22:27:50.609Z,2.22
2023-10-22T22:30:17.141Z,1.55
2023-10-22T22:32:44.051Z,1.50
2023-10-22T22:35:10.461Z,10.05
2023-10-22T22:37:36.985Z,1.27
2023-10-22T22:40:04.722Z,2.47
2023-10-22T22:42:31.126Z,7.57
2023-10-22T22:44:57.915Z,2.65
2023-10-22T22:47:24.861Z,2.28
2023-10-22T22:49:51.644Z,2.38
2023-10-22T22:52:18.143Z,2.60
2023-10-22T22:54:44.590Z,3.15
2023-10-22T22:57:11.398Z,1.10
2023-10-22T22:59:37.925Z,1.95
2023-10-22T23:02:04.776Z,1.67
2023-10-22T23:04:31.141Z,1.02
2023-10-22T23:06:57.945Z,2.45
2023-10-22T23:09:24.369Z,2.20
2023-10-22T23:11:50.770Z,2.25
2023-10-22T23:14:17.573Z,1.63
2023-10-22T23:16:44.279Z,3.75
2023-10-22T23:19:10.989Z,2.90
2023-10-22T23:21:37.389Z,2.28
2023-10-22T23:24:04.886Z,1.88
2023-10-22T23:26:31.261Z,2.03
2023-10-22T23:28:57.686Z,2.65
2023-10-22T23:31:24.528Z,1.38
2023-10-22T23:33:50.961Z,2.40
2023-10-22T23:36:17.817Z,1.83
2023-10-22T23:38:44.320Z,3.97
2023-10-22T23:41:11.118Z,2.03
2023-10-22T23:43:37.490Z,1.50
2023-10-22T23:46:03.921Z,1.63
2023-10-22T23:48:31.195Z,2.10
2023-10-22T23:50:57.597Z,5.18
2023-10-22T23:53:24.390Z,2.45
2023-10-22T23:55:50.826Z,1.60
2023-10-22T23:58:17.686Z,3.17
